Time;durP1;ratioP1;P1;durP2;ratioP2;P2;SDS_P1;SDS_P2;PMS_P1;PMS_P2;Temp;Humidity;BMP_temperature;BMP_pressure;BME280_temperature;BME280_humidity;BME280_pressure;Samples;Min_cycle;Max_cycle;Signal;HPM_P1;HPM_P2
2023/07/23 00:00:38;;;;;;;0.88;0.20;;;16.90;99.90;;;;;;4966322;28;20187;-62
2023/07/23 00:03:03;;;;;;;3.22;0.20;;;16.90;99.90;;;;;;4967046;28;20183;-62
2023/07/23 00:05:29;;;;;;;1.38;0.30;;;17.00;99.90;;;;;;4968638;28;20220;-61
2023/07/23 00:07:56;;;;;;;0.43;0.25;;;17.00;99.90;;;;;;4967042;28;20180;-61
2023/07/23 00:10:22;;;;;;;1.17;0.22;;;16.90;99.90;;;;;;4967399;28;20175;-62
2023/07/23 00:12:48;;;;;;;0.75;0.20;;;16.50;99.90;;;;;;4970263;28;20190;-61
2023/07/23 00:15:13;;;;;;;0.73;0.20;;;16.90;99.90;;;;;;4974581;28;20207;-61
2023/07/23 00:17:40;;;;;;;0.70;0.20;;;16.90;99.90;;;;;;4969804;28;20655;-61
2023/07/23 00:20:10;;;;;;;3.72;0.20;;;16.90;99.90;;;;;;4970759;28;20199;-60
2023/07/23 00:22:39;;;;;;;1.77;0.10;;;16.80;99.90;;;;;;4970583;28;20642;-60
2023/07/23 00:25:06;;;;;;;1.38;0.30;;;16.80;99.90;;;;;;4973704;28;20714;-62
2023/07/23 00:27:32;;;;;;;0.85;0.20;;;16.80;99.90;;;;;;4969535;28;20180;-61
2023/07/23 00:29:58;;;;;;;0.85;0.20;;;16.80;99.90;;;;;;4971645;28;20180;-62
2023/07/23 00:32:24;;;;;;;5.88;0.30;;;16.80;99.90;;;;;;4972272;28;20192;-61
2023/07/23 00:34:49;;;;;;;0.47;0.30;;;16.80;99.90;;;;;;4971701;28;20283;-60
2023/07/23 00:37:15;;;;;;;1.17;0.20;;;16.80;99.90;;;;;;4968342;28;20184;-60
2023/07/23 00:39:41;;;;;;;0.88;0.28;;;16.80;99.90;;;;;;4970377;28;20188;-61
2023/07/23 00:42:07;;;;;;;3.03;0.25;;;16.90;99.90;;;;;;4973622;28;20267;-62
2023/07/23 00:44:33;;;;;;;0.63;0.20;;;16.80;99.90;;;;;;4969675;28;20219;-62
2023/07/23 00:47:00;;;;;;;1.27;0.20;;;16.80;99.90;;;;;;4970151;28;20733;-61
2023/07/23 00:49:26;;;;;;;0.45;0.15;;;16.80;99.90;;;;;;4970807;28;20244;-62
2023/07/23 00:51:53;;;;;;;0.38;0.10;;;16.70;99.90;;;;;;4965178;28;20175;-61
2023/07/23 00:54:20;;;;;;;2.13;0.20;;;16.60;99.90;;;;;;4969415;28;21590;-62
2023/07/23 00:56:46;;;;;;;0.52;0.30;;;16.80;99.90;;;;;;4968631;28;20187;-62
2023/07/23 00:59:12;;;;;;;1.65;0.17;;;16.80;99.90;;;;;;4971192;28;20203;-62
2023/07/23 01:01:38;;;;;;;0.20;0.10;;;16.70;99.90;;;;;;4971773;28;20194;-62
2023/07/23 01:04:04;;;;;;;1.30;0.22;;;16.70;99.90;;;;;;4969033;28;20188;-62
2023/07/23 01:06:33;;;;;;;0.90;0.20;;;16.70;99.90;;;;;;4969633;28;20211;-62
2023/07/23 01:09:01;;;;;;;0.22;0.17;;;16.70;99.90;;;;;;4972709;28;20231;-62
2023/07/23 01:11:28;;;;;;;4.75;0.60;;;16.80;99.90;;;;;;4969906;28;20211;-63
2023/07/23 01:13:55;;;;;;;0.70;0.30;;;16.80;99.90;;;;;;4968883;28;20184;-61
2023/07/23 01:16:22;;;;;;;0.60;0.30;;;16.70;99.90;;;;;;4968640;28;20259;-62
2023/07/23 01:18:48;;;;;;;2.65;0.40;;;16.80;99.90;;;;;;4973064;28;20658;-62
2023/07/23 01:21:16;;;;;;;1.17;0.55;;;16.80;99.90;;;;;;4968915;28;20192;-62
2023/07/23 01:23:43;;;;;;;4.57;0.52;;;16.80;99.90;;;;;;4969611;28;20647;-61
2023/07/23 01:26:08;;;;;;;1.98;0.40;;;16.80;99.90;;;;;;4968730;28;20262;-62
2023/07/23 01:28:34;;;;;;;2.05;0.50;;;16.90;99.90;;;;;;4972962;28;20207;-63
2023/07/23 01:31:00;;;;;;;2.08;0.52;;;16.80;99.90;;;;;;4970465;28;20194;-63
2023/07/23 01:33:26;;;;;;;3.10;0.50;;;16.80;99.90;;;;;;4969170;28;20180;-62
2023/07/23 01:35:57;;;;;;;1.50;0.30;;;16.80;99.90;;;;;;4970954;28;20631;-62
2023/07/23 01:38:23;;;;;;;1.23;0.40;;;16.80;99.90;;;;;;4971092;28;20807;-62
2023/07/23 01:40:49;;;;;;;0.85;0.45;;;16.80;99.90;;;;;;4968364;28;20373;-62
2023/07/23 01:43:16;;;;;;;2.30;0.57;;;16.80;99.90;;;;;;4968924;28;20187;-62
2023/07/23 01:45:45;;;;;;;1.92;0.20;;;16.80;99.90;;;;;;4972005;28;20220;-61
2023/07/23 01:48:11;;;;;;;5.30;0.50;;;16.80;99.90;;;;;;4969014;28;20625;-62
2023/07/23 01:50:37;;;;;;;0.77;0.40;;;16.80;99.90;;;;;;4962812;28;20260;-63
2023/07/23 01:53:03;;;;;;;1.55;0.60;;;16.90;99.90;;;;;;4967967;28;20279;-62
2023/07/23 01:55:28;;;;;;;0.65;0.50;;;16.80;99.90;;;;;;4972290;28;20184;-61
2023/07/23 01:57:54;;;;;;;3.20;0.60;;;16.90;99.90;;;;;;4970917;28;20183;-63
2023/07/23 02:00:20;;;;;;;3.00;0.85;;;16.80;99.90;;;;;;4964210;28;20179;-62
2023/07/23 02:02:45;;;;;;;2.28;0.70;;;16.80;99.90;;;;;;4969202;28;20176;-63
2023/07/23 02:05:12;;;;;;;2.67;1.00;;;16.80;99.90;;;;;;4968629;28;20251;-63
2023/07/23 02:07:37;;;;;;;5.25;1.00;;;16.80;99.90;;;;;;4970336;28;20593;-61
2023/07/23 02:10:03;;;;;;;6.45;1.20;;;16.80;99.90;;;;;;4969606;28;20709;-62
2023/07/23 02:12:29;;;;;;;3.88;1.00;;;16.80;99.90;;;;;;4968077;28;20199;-61
2023/07/23 02:14:54;;;;;;;4.03;1.00;;;16.90;99.90;;;;;;4968614;28;20540;-62
2023/07/23 02:17:20;;;;;;;3.92;0.90;;;16.80;99.90;;;;;;4972088;28;20259;-62
2023/07/23 02:19:46;;;;;;;3.55;1.10;;;16.80;99.90;;;;;;4967960;28;20180;-61
2023/07/23 02:22:12;;;;;;;3.00;1.00;;;16.80;99.90;;;;;;4968466;28;20596;-62
2023/07/23 02:24:37;;;;;;;3.08;1.08;;;16.80;99.90;;;;;;4967830;28;20595;-62
2023/07/23 02:27:03;;;;;;;4.38;1.05;;;16.80;99.90;;;;;;4971700;28;20588;-61
2023/07/23 02:29:29;;;;;;;2.85;0.98;;;16.80;99.90;;;;;;4966666;28;20198;-61
2023/07/23 02:31:55;;;;;;;3.92;1.10;;;16.80;99.90;;;;;;4971794;28;20648;-61
2023/07/23 02:34:20;;;;;;;5.07;1.50;;;16.80;99.90;;;;;;4966828;28;20179;-62
2023/07/23 02:36:47;;;;;;;2.83;0.88;;;16.80;99.90;;;;;;4968261;28;20187;-61
2023/07/23 02:39:13;;;;;;;4.28;1.23;;;16.80;99.90;;;;;;4970819;28;20263;-61
2023/07/23 02:41:39;;;;;;;5.63;1.10;;;16.80;99.90;;;;;;4968063;28;20234;-64
2023/07/23 02:44:05;;;;;;;4.07;1.15;;;16.70;99.90;;;;;;4967859;28;20176;-62
2023/07/23 02:46:31;;;;;;;2.55;1.00;;;16.70;99.90;;;;;;4968823;28;20266;-62
2023/07/23 02:48:56;;;;;;;3.25;1.40;;;16.70;99.90;;;;;;4970969;28;20260;-61
2023/07/23 02:51:22;;;;;;;6.32;1.40;;;16.70;99.90;;;;;;4969623;28;20186;-61
2023/07/23 02:53:49;;;;;;;3.22;1.15;;;16.70;99.90;;;;;;4971082;28;20180;-62
2023/07/23 02:56:14;;;;;;;3.53;1.35;;;16.70;99.90;;;;;;4970008;28;20279;-61
2023/07/23 02:58:40;;;;;;;3.58;1.17;;;16.70;99.90;;;;;;4966980;28;20314;-63
2023/07/23 03:01:06;;;;;;;2.72;1.13;;;16.60;99.90;;;;;;4969197;28;20191;-62
2023/07/23 03:03:31;;;;;;;4.97;1.42;;;16.60;99.90;;;;;;4969704;28;20179;-61
2023/07/23 03:05:57;;;;;;;4.22;1.35;;;16.60;99.90;;;;;;4966402;28;20223;-62
2023/07/23 03:08:22;;;;;;;1.75;1.13;;;16.60;99.90;;;;;;4967269;28;20263;-62
2023/07/23 03:10:48;;;;;;;3.72;1.60;;;16.60;99.90;;;;;;4970877;28;20175;-62
2023/07/23 03:13:14;;;;;;;2.53;1.83;;;16.60;99.90;;;;;;4969320;28;20187;-61
2023/07/23 03:15:39;;;;;;;3.05;1.50;;;16.60;99.90;;;;;;4971209;28;20274;-61
2023/07/23 03:18:05;;;;;;;5.47;2.05;;;16.60;99.90;;;;;;4966448;28;20187;-60
2023/07/23 03:20:30;;;;;;;5.05;1.50;;;16.50;99.90;;;;;;4970965;28;20732;-59
2023/07/23 03:22:56;;;;;;;6.00;1.90;;;16.50;99.90;;;;;;4963336;28;20624;-58
2023/07/23 03:25:22;;;;;;;5.07;1.75;;;;;;;;;;4966861;28;20564;-61
2023/07/23 03:27:48;;;;;;;3.30;1.63;;;;;;;;;;4969578;28;20168;-63
2023/07/23 03:30:14;;;;;;;4.63;1.63;;;16.50;99.90;;;;;;4970131;28;20897;-63
2023/07/23 03:32:40;;;;;;;7.38;1.98;;;16.50;99.90;;;;;;4969040;28;20231;-61
2023/07/23 03:35:06;;;;;;;6.22;2.10;;;16.50;99.90;;;;;;4970665;28;20635;-63
2023/07/23 03:37:31;;;;;;;8.10;2.20;;;16.50;99.90;;;;;;4968885;28;20203;-63
2023/07/23 03:39:57;;;;;;;3.85;1.73;;;16.50;99.90;;;;;;4970028;28;20180;-62
2023/07/23 03:42:25;;;;;;;7.25;1.80;;;16.60;99.90;;;;;;4969264;28;20714;-63
2023/07/23 03:44:51;;;;;;;5.35;1.88;;;17.00;99.90;;;;;;4968325;28;20187;-63
2023/07/23 03:47:20;;;;;;;5.40;1.75;;;16.50;99.90;;;;;;4973418;28;20231;-63
2023/07/23 03:49:46;;;;;;;6.93;1.60;;;16.40;99.90;;;;;;4969377;28;20666;-62
2023/07/23 03:52:13;;;;;;;4.50;1.40;;;16.50;99.90;;;;;;4974709;28;20187;-63
2023/07/23 03:54:38;;;;;;;5.28;1.10;;;16.50;99.90;;;;;;4968759;28;20187;-63
2023/07/23 03:57:04;;;;;;;6.22;1.48;;;16.60;99.90;;;;;;4973783;28;20176;-64
2023/07/23 03:59:35;;;;;;;8.27;2.00;;;16.60;99.90;;;;;;4973060;28;20207;-63
2023/07/23 04:02:01;;;;;;;10.48;1.85;;;17.20;99.90;;;;;;4969593;28;20640;-63
2023/07/23 04:04:28;;;;;;;11.63;1.98;;;16.20;99.90;;;;;;4973704;28;20183;-63
2023/07/23 04:06:53;;;;;;;8.20;1.83;;;16.40;99.90;;;;;;4970770;28;20223;-63
2023/07/23 04:09:20;;;;;;;6.65;1.40;;;16.60;99.90;;;;;;4973992;28;20188;-64
2023/07/23 04:11:46;;;;;;;7.82;1.50;;;16.50;99.90;;;;;;4969954;28;20185;-63
2023/07/23 04:14:11;;;;;;;6.22;1.25;;;16.50;99.90;;;;;;4974470;28;20184;-63
2023/07/23 04:16:37;;;;;;;9.27;1.42;;;16.50;99.90;;;;;;4969101;28;20187;-64
2023/07/23 04:19:03;;;;;;;7.95;1.48;;;16.50;99.90;;;;;;4974416;28;20180;-63
2023/07/23 04:21:28;;;;;;;6.78;1.13;;;16.70;99.90;;;;;;4969912;28;20184;-64
2023/07/23 04:23:55;;;;;;;5.95;1.10;;;16.30;99.90;;;;;;4970509;28;20243;-64
2023/07/23 04:26:21;;;;;;;6.70;1.27;;;16.50;99.90;;;;;;4971468;28;20224;-64
2023/07/23 04:28:49;;;;;;;5.70;1.20;;;;;;;;;;4974584;28;20222;-64
2023/07/23 04:31:14;;;;;;;5.10;0.88;;;16.60;99.90;;;;;;4975164;28;20204;-64
2023/07/23 04:33:40;;;;;;;6.53;1.05;;;16.40;99.90;;;;;;4971382;28;20176;-65
2023/07/23 04:36:10;;;;;;;6.93;0.90;;;16.50;99.90;;;;;;4969725;28;20612;-64
2023/07/23 04:38:35;;;;;;;6.43;1.30;;;16.70;99.90;;;;;;4970591;28;20187;-64
2023/07/23 04:41:02;;;;;;;7.57;1.30;;;;;;;;;;4969719;28;20180;-64
2023/07/23 04:43:27;;;;;;;9.65;1.60;;;16.40;99.90;;;;;;4969452;28;20185;-64
2023/07/23 04:45:53;;;;;;;6.57;1.20;;;16.40;99.90;;;;;;4973869;28;20294;-64
2023/07/23 04:48:18;;;;;;;10.55;1.52;;;15.70;99.90;;;;;;4969111;28;20224;-64
2023/07/23 04:50:44;;;;;;;11.35;1.92;;;16.60;99.90;;;;;;4970101;28;20188;-64
2023/07/23 04:53:10;;;;;;;6.22;1.52;;;;;;;;;;4971566;28;20184;-64
2023/07/23 04:55:36;;;;;;;8.07;1.80;;;16.60;99.90;;;;;;4969849;28;20279;-64
2023/07/23 04:58:02;;;;;;;8.77;1.30;;;16.60;99.90;;;;;;4972253;28;20717;-65
2023/07/23 05:00:28;;;;;;;5.80;1.30;;;16.50;99.90;;;;;;4973719;28;20206;-64
2023/07/23 05:02:54;;;;;;;8.10;1.38;;;16.50;99.90;;;;;;4969136;28;20224;-64
2023/07/23 05:05:20;;;;;;;5.20;1.17;;;16.50;99.90;;;;;;4972715;28;20422;-64
2023/07/23 05:07:45;;;;;;;8.07;1.40;;;16.60;99.90;;;;;;4971633;28;20191;-64
2023/07/23 05:10:11;;;;;;;7.50;1.35;;;16.50;99.90;;;;;;4970393;28;20187;-63
2023/07/23 05:12:39;;;;;;;10.43;1.45;;;16.50;99.90;;;;;;4973075;28;20184;-63
2023/07/23 05:15:14;;;;;;;6.72;1.52;;;16.50;99.90;;;;;;4968917;28;20196;-63
2023/07/23 05:17:40;;;;;;;6.13;1.33;;;16.50;99.90;;;;;;4969452;28;20195;-64
2023/07/23 05:20:07;;;;;;;2.22;0.98;;;16.50;99.90;;;;;;4970831;28;20270;-64
2023/07/23 05:22:35;;;;;;;8.07;1.40;;;16.50;99.90;;;;;;4973327;28;20184;-65
2023/07/23 05:25:03;;;;;;;5.90;1.00;;;;;;;;;;4971557;28;20658;-64
2023/07/23 05:27:29;;;;;;;7.15;1.23;;;16.40;99.90;;;;;;4971400;28;20543;-63
2023/07/23 05:29:54;;;;;;;3.97;1.17;;;16.50;99.90;;;;;;4967936;28;20188;-64
2023/07/23 05:32:20;;;;;;;4.00;0.45;;;16.50;99.90;;;;;;4969340;28;20650;-65
2023/07/23 05:34:45;;;;;;;2.15;0.60;;;16.50;99.90;;;;;;4968389;28;20246;-64
2023/07/23 05:37:11;;;;;;;6.10;0.77;;;16.50;99.90;;;;;;4972391;28;20187;-65
2023/07/23 05:39:37;;;;;;;6.15;0.80;;;16.50;99.90;;;;;;4971384;28;20274;-65
2023/07/23 05:42:02;;;;;;;5.63;0.90;;;16.50;99.90;;;;;;4969210;28;20651;-64
2023/07/23 05:44:28;;;;;;;5.97;0.98;;;16.50;99.90;;;;;;4968370;28;20650;-62
2023/07/23 05:46:54;;;;;;;7.30;1.05;;;16.50;99.90;;;;;;4968800;28;20233;-63
2023/07/23 05:49:19;;;;;;;8.45;1.30;;;16.50;99.90;;;;;;4972911;28;20651;-63
2023/07/23 05:51:45;;;;;;;2.97;0.90;;;16.50;99.90;;;;;;4968236;28;20183;-63
2023/07/23 05:54:10;;;;;;;6.10;0.95;;;16.60;99.90;;;;;;4968950;28;20254;-64
2023/07/23 05:56:37;;;;;;;7.50;1.20;;;16.60;99.90;;;;;;4966915;28;20183;-64
2023/07/23 05:59:02;;;;;;;5.45;1.20;;;16.60;99.90;;;;;;4968839;28;20199;-63
2023/07/23 06:01:28;;;;;;;5.80;1.02;;;16.60;99.90;;;;;;4970121;28;20184;-63
2023/07/23 06:03:53;;;;;;;5.25;0.82;;;16.60;99.90;;;;;;4970617;28;20184;-64
2023/07/23 06:06:19;;;;;;;3.63;1.10;;;16.60;99.90;;;;;;4967778;28;20690;-65
2023/07/23 06:08:45;;;;;;;7.13;1.58;;;16.50;99.90;;;;;;4966708;28;20208;-64
2023/07/23 06:11:10;;;;;;;8.35;1.52;;;16.50;99.90;;;;;;4971866;28;20187;-66
2023/07/23 06:13:36;;;;;;;3.10;1.10;;;16.60;99.90;;;;;;4968473;28;20542;-64
2023/07/23 06:16:02;;;;;;;8.80;1.10;;;16.60;99.90;;;;;;4968497;28;20190;-64
2023/07/23 06:18:28;;;;;;;6.57;1.27;;;16.60;99.90;;;;;;4966508;28;20185;-65
2023/07/23 06:20:54;;;;;;;6.13;1.38;;;16.60;99.90;;;;;;4971869;28;20188;-64
2023/07/23 06:23:19;;;;;;;9.82;1.67;;;16.70;99.90;;;;;;4967575;28;20195;-63
2023/07/23 06:25:45;;;;;;;5.63;1.30;;;16.70;99.90;;;;;;4968164;28;20218;-63
2023/07/23 06:28:11;;;;;;;8.55;1.77;;;16.70;99.90;;;;;;4969856;28;20188;-63
2023/07/23 06:30:36;;;;;;;14.27;2.13;;;16.80;99.90;;;;;;4969048;28;20180;-64
2023/07/23 06:33:02;;;;;;;7.88;1.33;;;16.80;99.90;;;;;;4970223;28;20186;-65
2023/07/23 06:35:28;;;;;;;7.90;1.80;;;16.80;99.90;;;;;;4965002;28;20180;-64
2023/07/23 06:37:53;;;;;;;11.27;2.10;;;16.80;99.90;;;;;;4966901;28;20643;-64
2023/07/23 06:40:19;;;;;;;7.32;1.40;;;16.80;99.90;;;;;;4969799;28;20254;-69
2023/07/23 06:42:44;;;;;;;12.68;2.10;;;16.80;99.90;;;;;;4970769;28;20599;-60
2023/07/23 06:45:11;;;;;;;9.20;1.75;;;16.80;99.90;;;;;;4970162;28;20671;-61
2023/07/23 06:47:38;;;;;;;11.13;1.95;;;16.80;99.90;;;;;;4967722;28;20216;-60
2023/07/23 06:50:04;;;;;;;8.50;1.80;;;16.80;99.90;;;;;;4967172;28;20219;-60
2023/07/23 06:52:30;;;;;;;10.02;1.77;;;17.10;99.90;;;;;;4967945;28;20180;-60
2023/07/23 06:54:55;;;;;;;9.05;1.95;;;16.90;99.90;;;;;;4969500;28;20543;-61
2023/07/23 06:57:21;;;;;;;6.90;1.73;;;17.00;99.90;;;;;;4969198;28;20234;-60
2023/07/23 06:59:48;;;;;;;10.35;1.65;;;16.90;99.90;;;;;;4966519;28;20651;-61
2023/07/23 07:02:14;;;;;;;6.95;1.75;;;16.90;99.90;;;;;;4968217;28;20218;-62
2023/07/23 07:04:40;;;;;;;9.38;1.80;;;;;;;;;;4967139;28;20667;-61
2023/07/23 07:07:06;;;;;;;9.73;1.65;;;16.90;99.90;;;;;;4964518;28;20226;-60
2023/07/23 07:09:32;;;;;;;11.02;1.90;;;17.00;99.90;;;;;;4966524;28;20202;-61
2023/07/23 07:11:57;;;;;;;11.02;2.28;;;17.10;99.90;;;;;;4969921;28;20259;-59
2023/07/23 07:14:23;;;;;;;11.45;2.05;;;17.20;99.90;;;;;;4966324;28;20194;-67
2023/07/23 07:16:49;;;;;;;9.35;1.85;;;17.20;99.90;;;;;;4967855;28;20188;-62
2023/07/23 07:19:16;;;;;;;11.48;2.17;;;17.20;99.90;;;;;;4969788;28;20176;-63
2023/07/23 07:21:42;;;;;;;5.97;1.70;;;17.40;99.90;;;;;;4966987;28;20200;-63
2023/07/23 07:24:08;;;;;;;6.80;1.73;;;17.50;99.90;;;;;;4967342;28;20176;-63
2023/07/23 07:26:34;;;;;;;8.73;2.13;;;17.60;99.90;;;;;;4969655;28;20257;-63
2023/07/23 07:28:59;;;;;;;7.75;1.88;;;17.70;99.90;;;;;;4967927;28;20207;-63
2023/07/23 07:31:25;;;;;;;8.80;2.00;;;17.60;99.90;;;;;;4969694;28;20199;-63
2023/07/23 07:33:51;;;;;;;13.63;2.40;;;17.40;99.90;;;;;;4967366;28;20176;-63
2023/07/23 07:36:17;;;;;;;13.73;2.45;;;17.30;99.90;;;;;;4971084;28;20254;-62
2023/07/23 07:38:43;;;;;;;12.77;2.28;;;17.30;99.90;;;;;;4966515;28;20639;-62
2023/07/23 07:41:09;;;;;;;8.07;1.92;;;17.20;99.90;;;;;;4967286;28;20243;-62
2023/07/23 07:43:35;;;;;;;7.18;1.40;;;17.30;99.90;;;;;;4967392;28;20251;-62
2023/07/23 07:46:03;;;;;;;7.32;1.95;;;17.30;99.90;;;;;;4968588;28;20215;-58
2023/07/23 07:48:29;;;;;;;10.98;2.63;;;17.30;99.90;;;;;;4964513;28;20697;-58
2023/07/23 07:51:04;;;;;;;11.30;1.80;;;17.50;99.90;;;;;;4970117;28;20266;-59
2023/07/23 07:53:31;;;;;;;10.45;2.05;;;17.60;99.90;;;;;;4968941;28;20215;-60
2023/07/23 07:55:58;;;;;;;11.00;1.98;;;17.70;99.90;;;;;;4967053;28;20191;-60
2023/07/23 07:58:24;;;;;;;7.07;2.10;;;17.70;99.90;;;;;;4968606;28;20187;-60
2023/07/23 08:00:54;;;;;;;10.30;2.42;;;17.60;99.90;;;;;;4967205;28;20199;-60
2023/07/23 08:03:23;;;;;;;5.78;1.70;;;17.70;99.90;;;;;;4969624;28;20209;-59
2023/07/23 08:05:49;;;;;;;6.88;1.73;;;17.70;99.90;;;;;;4966648;28;20238;-59
2023/07/23 08:08:18;;;;;;;7.97;1.63;;;17.80;99.90;;;;;;4970087;28;20183;-60
2023/07/23 08:10:45;;;;;;;6.95;2.17;;;17.90;99.90;;;;;;4967310;28;20179;-59
2023/07/23 08:13:13;;;;;;;7.00;1.77;;;18.00;99.90;;;;;;4966548;28;20184;-59
2023/07/23 08:15:39;;;;;;;7.15;2.03;;;17.90;99.90;;;;;;4966053;28;20810;-59
2023/07/23 08:18:05;;;;;;;5.07;1.75;;;18.90;99.90;;;;;;4968820;28;20200;-58
2023/07/23 08:20:33;;;;;;;7.63;2.10;;;18.10;99.90;;;;;;4968295;28;20603;-59
2023/07/23 08:22:59;;;;;;;7.32;1.85;;;18.10;99.90;;;;;;4970382;28;20670;-59
2023/07/23 08:25:25;;;;;;;10.52;2.00;;;18.20;99.90;;;;;;4966185;28;20216;-59
2023/07/23 08:27:52;;;;;;;8.52;2.30;;;18.30;99.90;;;;;;4966737;28;20184;-57
2023/07/23 08:30:20;;;;;;;5.60;1.73;;;18.40;99.90;;;;;;4969564;28;20187;-60
2023/07/23 08:32:48;;;;;;;6.88;1.75;;;18.30;99.90;;;;;;4969121;28;20676;-60
2023/07/23 08:35:13;;;;;;;7.28;1.73;;;18.40;99.90;;;;;;4971873;28;20200;-60
2023/07/23 08:37:40;;;;;;;7.72;2.20;;;;;;;;;;4971941;28;20192;-59
2023/07/23 08:40:06;;;;;;;8.70;1.98;;;18.20;99.90;;;;;;4973279;28;20171;-57
2023/07/23 08:42:32;;;;;;;9.20;2.15;;;;;;;;;;4971100;28;20216;-58
2023/07/23 08:45:19;;;;;;;8.13;2.30;;;18.90;99.90;;;;;;4969569;28;20685;-57
2023/07/23 08:47:47;;;;;;;7.13;1.98;;;19.20;99.90;;;;;;4971823;28;20215;-58
2023/07/23 08:50:14;;;;;;;10.48;2.38;;;19.40;99.90;;;;;;4971084;28;20246;-58
2023/07/23 08:52:45;;;;;;;11.43;2.33;;;19.30;99.90;;;;;;4971439;28;20188;-58
2023/07/23 08:55:11;;;;;;;9.98;2.38;;;;;;;;;;4969160;28;20622;-57
2023/07/23 08:57:38;;;;;;;8.57;2.03;;;19.90;99.90;;;;;;4970045;28;20247;-57
2023/07/23 09:00:06;;;;;;;9.20;2.00;;;20.00;99.90;;;;;;4972494;28;20183;-58
2023/07/23 09:02:34;;;;;;;8.98;2.25;;;19.60;99.90;;;;;;4969976;28;20179;-57
2023/07/23 09:05:00;;;;;;;7.57;2.58;;;;;;;;;;4969334;28;20183;-57
2023/07/23 09:07:26;;;;;;;12.93;2.58;;;;;;;;;;4969780;28;20184;-57
2023/07/23 09:09:52;;;;;;;7.82;2.03;;;;;;;;;;4973464;28;20619;-61
2023/07/23 09:12:18;;;;;;;6.88;1.92;;;20.50;99.90;;;;;;4968823;28;20186;-57
2023/07/23 09:14:44;;;;;;;8.52;2.30;;;20.20;99.90;;;;;;4969905;28;20183;-57
2023/07/23 09:17:20;;;;;;;7.57;1.60;;;20.50;99.90;;;;;;4970687;28;20184;-58
2023/07/23 09:19:47;;;;;;;9.07;1.90;;;19.80;99.90;;;;;;4969528;28;20183;-57
2023/07/23 09:22:15;;;;;;;6.53;2.08;;;19.80;99.90;;;;;;4969149;28;20199;-59
2023/07/23 09:24:41;;;;;;;9.90;1.88;;;20.00;99.90;;;;;;4964408;28;20183;-58
2023/07/23 09:27:10;;;;;;;7.05;2.20;;;20.20;99.90;;;;;;4968506;28;20215;-58
2023/07/23 09:29:37;;;;;;;12.13;2.97;;;20.00;99.90;;;;;;4972239;28;20647;-58
2023/07/23 09:32:03;;;;;;;8.13;2.25;;;;;;;;;;4970363;28;20196;-58
2023/07/23 09:34:29;;;;;;;6.18;1.20;;;20.80;99.90;;;;;;4968483;28;20270;-58
2023/07/23 09:36:54;;;;;;;2.63;1.17;;;19.80;99.90;;;;;;4968372;28;20208;-58
2023/07/23 09:39:25;;;;;;;7.38;1.80;;;20.60;99.90;;;;;;4970902;28;20171;-58
2023/07/23 09:41:51;;;;;;;3.10;1.63;;;20.60;99.90;;;;;;4968485;28;20180;-58
2023/07/23 09:44:17;;;;;;;5.57;1.48;;;20.70;99.90;;;;;;4967982;28;20226;-58
2023/07/23 09:46:46;;;;;;;6.18;1.75;;;20.80;99.90;;;;;;4968354;28;20243;-57
2023/07/23 09:49:13;;;;;;;3.72;1.38;;;20.40;99.90;;;;;;4968970;28;20185;-58
2023/07/23 09:51:39;;;;;;;8.05;1.95;;;20.20;99.90;;;;;;4971246;28;20562;-58
2023/07/23 09:54:05;;;;;;;5.20;2.08;;;20.10;99.90;;;;;;4967453;28;20183;-58
2023/07/23 09:56:33;;;;;;;5.45;2.10;;;20.00;99.90;;;;;;4972556;28;20176;-58
2023/07/23 09:58:59;;;;;;;8.18;2.20;;;19.90;99.90;;;;;;4968022;28;20262;-57
2023/07/23 10:01:25;;;;;;;6.28;2.47;;;;;;;;;;4968707;28;20183;-59
2023/07/23 10:03:52;;;;;;;4.10;1.85;;;20.00;99.90;;;;;;4969146;28;20702;-58
2023/07/23 10:06:22;;;;;;;9.98;2.47;;;20.50;99.90;;;;;;4971373;28;20231;-58
2023/07/23 10:08:49;;;;;;;8.15;2.20;;;20.70;99.90;;;;;;4967974;28;20714;-57
2023/07/23 10:11:17;;;;;;;5.93;1.92;;;21.40;99.90;;;;;;4968436;28;20195;-59
2023/07/23 10:13:44;;;;;;;5.90;1.80;;;21.70;99.90;;;;;;4970745;28;20319;-57
2023/07/23 10:16:23;;;;;;;5.60;2.10;;;21.80;99.90;;;;;;4970077;28;20199;-58
2023/07/23 10:18:50;;;;;;;10.05;2.30;;;21.30;99.90;;;;;;4967602;28;20693;-57
2023/07/23 10:21:18;;;;;;;11.05;2.50;;;20.90;99.90;;;;;;4968432;28;20188;-59
2023/07/23 10:23:57;;;;;;;5.95;2.03;;;20.70;99.90;;;;;;4970630;28;20227;-58
2023/07/23 10:26:24;;;;;;;6.03;1.98;;;20.60;99.90;;;;;;4968172;28;20242;-58
2023/07/23 10:28:58;;;;;;;5.25;2.03;;;20.60;99.90;;;;;;4970682;28;20207;-59
2023/07/23 10:31:26;;;;;;;9.38;1.98;;;21.10;99.90;;;;;;4969075;28;20241;-58
2023/07/23 10:33:52;;;;;;;5.75;1.90;;;20.90;99.90;;;;;;4968121;28;20181;-57
2023/07/23 10:36:21;;;;;;;6.43;2.10;;;20.80;99.90;;;;;;4968653;28;20665;-58
2023/07/23 10:39:01;;;;;;;7.32;1.75;;;20.70;99.90;;;;;;4970182;28;20201;-57
2023/07/23 10:41:55;;;;;;;8.45;1.98;;;20.50;99.90;;;;;;4970441;28;20218;-57
2023/07/23 10:44:27;;;;;;;8.10;2.13;;;21.00;99.90;;;;;;4968720;28;20191;-58
2023/07/23 10:46:55;;;;;;;6.25;1.40;;;21.40;99.90;;;;;;4966103;28;20231;-59
2023/07/23 10:49:24;;;;;;;5.47;1.77;;;21.60;99.90;;;;;;4967481;28;20186;-58
2023/07/23 10:51:52;;;;;;;8.68;1.67;;;21.80;99.90;;;;;;4967757;28;20219;-58
2023/07/23 10:54:19;;;;;;;4.72;1.63;;;21.90;99.90;;;;;;4977188;28;20180;-59
2023/07/23 10:56:47;;;;;;;6.70;2.08;;;22.30;99.90;;;;;;4968000;28;20274;-57
2023/07/23 10:59:14;;;;;;;6.32;2.20;;;21.90;99.90;;;;;;4965651;28;20194;-58
2023/07/23 11:01:43;;;;;;;6.63;1.85;;;22.20;99.90;;;;;;4971547;28;20271;-57
2023/07/23 11:04:14;;;;;;;7.95;2.03;;;22.90;99.90;;;;;;4967050;28;20274;-59
2023/07/23 11:07:00;;;;;;;6.28;1.85;;;23.20;99.90;;;;;;4963000;28;20257;-58
2023/07/23 11:09:35;;;;;;;6.25;1.70;;;23.20;99.90;;;;;;4967616;28;20180;-58
2023/07/23 11:12:05;;;;;;;6.03;1.88;;;22.30;99.90;;;;;;4970657;28;20183;-58
2023/07/23 11:14:31;;;;;;;7.88;2.50;;;21.60;99.90;;;;;;4969300;28;20246;-58
2023/07/23 11:17:02;;;;;;;5.47;1.80;;;22.40;99.90;;;;;;4970432;28;20717;-59
2023/07/23 11:19:29;;;;;;;5.90;1.63;;;23.10;99.90;;;;;;4970574;28;20182;-57
2023/07/23 11:21:56;;;;;;;5.82;2.00;;;23.60;99.90;;;;;;4966445;28;20191;-58
2023/07/23 11:24:24;;;;;;;3.78;1.48;;;23.20;99.90;;;;;;4969629;28;20267;-57
2023/07/23 11:26:50;;;;;;;2.55;1.52;;;23.00;99.90;;;;;;4967594;28;20310;-59
2023/07/23 11:29:16;;;;;;;5.00;1.60;;;23.20;99.90;;;;;;4969422;28;20226;-58
2023/07/23 11:31:42;;;;;;;5.32;1.35;;;23.70;99.90;;;;;;4964645;28;20180;-59
2023/07/23 11:34:09;;;;;;;3.17;1.10;;;23.70;1.00;;;;;;4969223;28;20186;-59
2023/07/23 11:36:36;;;;;;;2.50;1.27;;;24.10;1.00;;;;;;4969852;28;20194;-60
2023/07/23 11:39:04;;;;;;;2.33;1.15;;;23.70;1.00;;;;;;4968410;28;20263;-58
2023/07/23 11:41:32;;;;;;;5.15;1.38;;;23.80;1.00;;;;;;4969461;28;20194;-59
2023/07/23 11:43:59;;;;;;;6.28;1.17;;;23.90;1.00;;;;;;4966562;28;20188;-59
2023/07/23 11:46:25;;;;;;;4.32;1.30;;;24.00;1.00;;;;;;4970086;28;20219;-58
2023/07/23 11:48:53;;;;;;;7.80;1.65;;;23.70;1.00;;;;;;4965070;28;20219;-59
2023/07/23 11:51:19;;;;;;;4.55;1.50;;;23.70;1.00;;;;;;4969827;28;20294;-59
2023/07/23 11:53:44;;;;;;;4.10;1.35;;;23.50;99.90;;;;;;4965709;28;20172;-58
2023/07/23 11:56:13;;;;;;;5.30;1.30;;;23.60;1.00;;;;;;4965763;28;20560;-59
2023/07/23 11:58:40;;;;;;;3.22;1.60;;;24.50;1.00;;;;;;4970740;28;20179;-60
2023/07/23 12:01:07;;;;;;;4.88;1.40;;;24.80;1.00;;;;;;4968175;28;20168;-59
2023/07/23 12:03:39;;;;;;;4.55;1.23;;;24.50;1.00;;;;;;4968545;28;20267;-60
2023/07/23 12:06:04;;;;;;;3.35;1.40;;;24.80;99.90;;;;;;4966549;28;20219;-60
2023/07/23 12:08:31;;;;;;;4.53;1.48;;;;;;;;;;4972954;28;20191;-60
2023/07/23 12:10:56;;;;;;;5.57;1.23;;;24.40;99.90;;;;;;4966816;28;20180;-58
2023/07/23 12:13:25;;;;;;;3.78;1.30;;;25.20;99.90;;;;;;4973025;28;20682;-58
2023/07/23 12:15:54;;;;;;;3.17;1.20;;;25.20;99.90;;;;;;4971666;28;20188;-59
2023/07/23 12:18:25;;;;;;;3.38;1.27;;;24.70;99.90;;;;;;4972118;28;20171;-59
2023/07/23 12:20:57;;;;;;;5.70;1.30;;;24.90;1.00;;;;;;4970444;28;20191;-59
2023/07/23 12:23:23;;;;;;;4.65;1.30;;;25.00;1.00;;;;;;4973827;28;20179;-59
2023/07/23 12:25:48;;;;;;;6.80;1.23;;;24.90;99.90;;;;;;4971456;28;20738;-60
2023/07/23 12:28:14;;;;;;;4.13;1.13;;;26.10;48.90;;;;;;4973718;28;20543;-59
2023/07/23 12:30:39;;;;;;;3.42;1.10;;;26.00;1.00;;;;;;4971224;28;20654;-58
2023/07/23 12:33:05;;;;;;;3.22;1.13;;;25.90;1.00;;;;;;4962063;28;20539;-58
2023/07/23 12:35:31;;;;;;;4.88;1.60;;;25.40;1.00;;;;;;4969964;28;20408;-59
2023/07/23 12:37:56;;;;;;;3.47;1.10;;;25.60;1.00;;;;;;4970245;28;20192;-58
2023/07/23 12:40:22;;;;;;;5.53;1.00;;;25.80;99.90;;;;;;4974095;28;20541;-60
2023/07/23 12:42:47;;;;;;;3.30;1.38;;;26.60;99.90;;;;;;4969442;28;20262;-60
2023/07/23 12:45:13;;;;;;;4.80;1.17;;;26.50;1.00;;;;;;4973176;28;20230;-60
2023/07/23 12:47:39;;;;;;;2.00;0.80;;;26.50;27.60;;;;;;4971239;28;20380;-59
2023/07/23 12:50:05;;;;;;;4.20;0.90;;;26.20;1.00;;;;;;4969999;28;20651;-60